sensor_id;sensor_type;location;lat;lon;timestamp;P1;durP1;ratioP1;P2;durP2;ratioP2
48975;SDS011;34791;52.752;8.346;2023-06-26T00:01:40;14.48;;;11.57;;
48975;SDS011;34791;52.752;8.346;2023-06-26T00:04:07;13.93;;;11.55;;
48975;SDS011;34791;52.752;8.346;2023-06-26T00:06:33;14.20;;;12.07;;
48975;SDS011;34791;52.752;8.346;2023-06-26T00:08:58;15.70;;;12.20;;
48975;SDS011;34791;52.752;8.346;2023-06-26T00:11:23;16.10;;;12.30;;
48975;SDS011;34791;52.752;8.346;2023-06-26T00:13:49;17.52;;;13.48;;
48975;SDS011;34791;52.752;8.346;2023-06-26T00:16:14;19.48;;;13.77;;
48975;SDS011;34791;52.752;8.346;2023-06-26T00:18:39;18.60;;;14.68;;
48975;SDS011;34791;52.752;8.346;2023-06-26T00:21:05;25.38;;;15.23;;
48975;SDS011;34791;52.752;8.346;2023-06-26T00:23:30;24.52;;;16.70;;
48975;SDS011;34791;52.752;8.346;2023-06-26T00:25:57;22.15;;;16.77;;
48975;SDS011;34791;52.752;8.346;2023-06-26T00:28:22;24.42;;;16.42;;
48975;SDS011;34791;52.752;8.346;2023-06-26T00:30:47;21.05;;;16.45;;
48975;SDS011;34791;52.752;8.346;2023-06-26T00:33:13;19.75;;;15.10;;
48975;SDS011;34791;52.752;8.346;2023-06-26T00:35:38;24.27;;;16.90;;
48975;SDS011;34791;52.752;8.346;2023-06-26T00:38:03;25.05;;;15.85;;
48975;SDS011;34791;52.752;8.346;2023-06-26T00:40:29;18.77;;;15.60;;
48975;SDS011;34791;52.752;8.346;2023-06-26T00:42:54;18.48;;;15.25;;
48975;SDS011;34791;52.752;8.346;2023-06-26T00:45:19;20.60;;;14.80;;
48975;SDS011;34791;52.752;8.346;2023-06-26T00:47:44;19.67;;;14.20;;
48975;SDS011;34791;52.752;8.346;2023-06-26T00:50:10;19.42;;;13.77;;
48975;SDS011;34791;52.752;8.346;2023-06-26T00:52:35;19.38;;;14.15;;
48975;SDS011;34791;52.752;8.346;2023-06-26T00:55:01;24.42;;;14.73;;
48975;SDS011;34791;52.752;8.346;2023-06-26T00:57:27;17.88;;;13.63;;
48975;SDS011;34791;52.752;8.346;2023-06-26T00:59:54;18.27;;;14.27;;
48975;SDS011;34791;52.752;8.346;2023-06-26T01:02:19;24.33;;;14.32;;
48975;SDS011;34791;52.752;8.346;2023-06-26T01:04:48;17.90;;;14.80;;
48975;SDS011;34791;52.752;8.346;2023-06-26T01:07:14;20.45;;;14.48;;
48975;SDS011;34791;52.752;8.346;2023-06-26T01:09:40;19.38;;;15.10;;
48975;SDS011;34791;52.752;8.346;2023-06-26T01:12:06;21.10;;;14.45;;
48975;SDS011;34791;52.752;8.346;2023-06-26T01:14:31;19.90;;;15.18;;
48975;SDS011;34791;52.752;8.346;2023-06-26T01:16:57;18.10;;;13.82;;
48975;SDS011;34791;52.752;8.346;2023-06-26T01:19:24;21.60;;;14.23;;
48975;SDS011;34791;52.752;8.346;2023-06-26T01:21:56;23.35;;;14.95;;
48975;SDS011;34791;52.752;8.346;2023-06-26T01:26:52;18.10;;;13.35;;
48975;SDS011;34791;52.752;8.346;2023-06-26T01:29:18;16.35;;;12.82;;
48975;SDS011;34791;52.752;8.346;2023-06-26T01:31:44;16.75;;;12.80;;
48975;SDS011;34791;52.752;8.346;2023-06-26T01:34:12;16.00;;;12.90;;
48975;SDS011;34791;52.752;8.346;2023-06-26T01:36:38;19.63;;;13.13;;
48975;SDS011;34791;52.752;8.346;2023-06-26T01:39:03;16.30;;;13.32;;
48975;SDS011;34791;52.752;8.346;2023-06-26T01:41:28;16.38;;;12.45;;
48975;SDS011;34791;52.752;8.346;2023-06-26T01:50:09;22.05;;;12.40;;
48975;SDS011;34791;52.752;8.346;2023-06-26T01:52:46;19.23;;;13.15;;
48975;SDS011;34791;52.752;8.346;2023-06-26T01:55:48;16.52;;;12.25;;
48975;SDS011;34791;52.752;8.346;2023-06-26T01:58:05;16.50;;;11.82;;
48975;SDS011;34791;52.752;8.346;2023-06-26T02:00:31;17.98;;;12.85;;
48975;SDS011;34791;52.752;8.346;2023-06-26T02:02:57;18.50;;;12.63;;
48975;SDS011;34791;52.752;8.346;2023-06-26T02:05:22;18.25;;;12.30;;
48975;SDS011;34791;52.752;8.346;2023-06-26T02:07:48;19.33;;;12.57;;
48975;SDS011;34791;52.752;8.346;2023-06-26T02:10:14;19.88;;;12.40;;
48975;SDS011;34791;52.752;8.346;2023-06-26T02:12:40;17.63;;;12.80;;
48975;SDS011;34791;52.752;8.346;2023-06-26T02:15:06;18.38;;;12.32;;
48975;SDS011;34791;52.752;8.346;2023-06-26T02:17:32;20.85;;;12.27;;
48975;SDS011;34791;52.752;8.346;2023-06-26T02:19:57;15.88;;;12.25;;
48975;SDS011;34791;52.752;8.346;2023-06-26T02:22:22;17.92;;;12.90;;
48975;SDS011;34791;52.752;8.346;2023-06-26T02:24:48;17.85;;;11.80;;
48975;SDS011;34791;52.752;8.346;2023-06-26T02:27:13;19.35;;;11.73;;
48975;SDS011;34791;52.752;8.346;2023-06-26T02:29:39;16.27;;;12.10;;
48975;SDS011;34791;52.752;8.346;2023-06-26T02:32:04;14.85;;;11.45;;
48975;SDS011;34791;52.752;8.346;2023-06-26T02:34:30;21.75;;;12.77;;
48975;SDS011;34791;52.752;8.346;2023-06-26T02:36:55;17.83;;;12.70;;
48975;SDS011;34791;52.752;8.346;2023-06-26T02:39:21;17.25;;;11.23;;
48975;SDS011;34791;52.752;8.346;2023-06-26T02:41:46;17.38;;;11.95;;
48975;SDS011;34791;52.752;8.346;2023-06-26T02:44:11;14.40;;;11.55;;
48975;SDS011;34791;52.752;8.346;2023-06-26T02:46:37;17.80;;;12.50;;
48975;SDS011;34791;52.752;8.346;2023-06-26T02:49:02;21.83;;;12.85;;
48975;SDS011;34791;52.752;8.346;2023-06-26T02:51:28;17.65;;;12.05;;
48975;SDS011;34791;52.752;8.346;2023-06-26T02:53:53;16.52;;;12.40;;
48975;SDS011;34791;52.752;8.346;2023-06-26T02:56:18;17.50;;;12.68;;
48975;SDS011;34791;52.752;8.346;2023-06-26T02:58:44;15.98;;;11.93;;
48975;SDS011;34791;52.752;8.346;2023-06-26T03:01:09;19.25;;;12.43;;
48975;SDS011;34791;52.752;8.346;2023-06-26T03:03:34;18.17;;;11.65;;
48975;SDS011;34791;52.752;8.346;2023-06-26T03:06:05;17.80;;;11.98;;
48975;SDS011;34791;52.752;8.346;2023-06-26T03:08:31;16.90;;;11.88;;
48975;SDS011;34791;52.752;8.346;2023-06-26T03:10:57;16.98;;;11.27;;
48975;SDS011;34791;52.752;8.346;2023-06-26T03:13:22;14.57;;;10.95;;
48975;SDS011;34791;52.752;8.346;2023-06-26T03:15:47;14.13;;;11.30;;
48975;SDS011;34791;52.752;8.346;2023-06-26T03:18:13;14.00;;;10.93;;
48975;SDS011;34791;52.752;8.346;2023-06-26T03:20:38;14.60;;;11.00;;
48975;SDS011;34791;52.752;8.346;2023-06-26T03:23:03;14.98;;;11.80;;
48975;SDS011;34791;52.752;8.346;2023-06-26T03:25:28;15.05;;;11.02;;
48975;SDS011;34791;52.752;8.346;2023-06-26T03:27:54;13.85;;;11.20;;
48975;SDS011;34791;52.752;8.346;2023-06-26T03:30:19;13.95;;;11.00;;
48975;SDS011;34791;52.752;8.346;2023-06-26T03:32:44;14.32;;;11.32;;
48975;SDS011;34791;52.752;8.346;2023-06-26T03:35:10;15.00;;;11.13;;
48975;SDS011;34791;52.752;8.346;2023-06-26T03:37:35;14.80;;;10.68;;
48975;SDS011;34791;52.752;8.346;2023-06-26T03:40:00;14.65;;;11.20;;
48975;SDS011;34791;52.752;8.346;2023-06-26T03:42:25;14.75;;;10.77;;
48975;SDS011;34791;52.752;8.346;2023-06-26T03:44:51;15.98;;;11.18;;
48975;SDS011;34791;52.752;8.346;2023-06-26T03:47:16;15.30;;;10.95;;
48975;SDS011;34791;52.752;8.346;2023-06-26T03:49:41;14.60;;;10.68;;
48975;SDS011;34791;52.752;8.346;2023-06-26T03:52:07;13.32;;;9.07;;
48975;SDS011;34791;52.752;8.346;2023-06-26T03:54:32;15.35;;;9.07;;
48975;SDS011;34791;52.752;8.346;2023-06-26T03:56:58;13.70;;;9.70;;
48975;SDS011;34791;52.752;8.346;2023-06-26T03:59:24;14.38;;;9.23;;
48975;SDS011;34791;52.752;8.346;2023-06-26T04:01:49;12.40;;;8.90;;
48975;SDS011;34791;52.752;8.346;2023-06-26T04:04:14;13.48;;;9.68;;
48975;SDS011;34791;52.752;8.346;2023-06-26T04:06:39;12.75;;;8.80;;
48975;SDS011;34791;52.752;8.346;2023-06-26T04:09:05;13.55;;;8.40;;
48975;SDS011;34791;52.752;8.346;2023-06-26T04:11:30;12.68;;;8.00;;
48975;SDS011;34791;52.752;8.346;2023-06-26T04:13:56;10.68;;;8.18;;
48975;SDS011;34791;52.752;8.346;2023-06-26T04:16:21;15.18;;;8.05;;
48975;SDS011;34791;52.752;8.346;2023-06-26T04:18:50;10.75;;;7.75;;
48975;SDS011;34791;52.752;8.346;2023-06-26T04:21:15;13.20;;;7.88;;
48975;SDS011;34791;52.752;8.346;2023-06-26T04:23:41;11.52;;;7.53;;
48975;SDS011;34791;52.752;8.346;2023-06-26T04:26:07;12.30;;;7.40;;
48975;SDS011;34791;52.752;8.346;2023-06-26T04:28:32;11.20;;;7.50;;
48975;SDS011;34791;52.752;8.346;2023-06-26T04:30:58;11.25;;;7.47;;
48975;SDS011;34791;52.752;8.346;2023-06-26T04:33:24;11.75;;;7.40;;
48975;SDS011;34791;52.752;8.346;2023-06-26T04:35:49;13.57;;;8.38;;
48975;SDS011;34791;52.752;8.346;2023-06-26T04:38:14;16.30;;;8.05;;
48975;SDS011;34791;52.752;8.346;2023-06-26T04:40:40;13.90;;;8.40;;
48975;SDS011;34791;52.752;8.346;2023-06-26T04:43:05;15.88;;;8.25;;
48975;SDS011;34791;52.752;8.346;2023-06-26T04:45:31;14.25;;;7.82;;
48975;SDS011;34791;52.752;8.346;2023-06-26T04:47:56;10.93;;;7.10;;
48975;SDS011;34791;52.752;8.346;2023-06-26T04:50:22;10.00;;;6.93;;
48975;SDS011;34791;52.752;8.346;2023-06-26T04:52:47;11.30;;;7.38;;
48975;SDS011;34791;52.752;8.346;2023-06-26T04:55:12;9.30;;;6.50;;
48975;SDS011;34791;52.752;8.346;2023-06-26T04:57:38;11.13;;;7.00;;
48975;SDS011;34791;52.752;8.346;2023-06-26T05:00:03;9.80;;;6.53;;
48975;SDS011;34791;52.752;8.346;2023-06-26T05:05:00;11.02;;;6.78;;
48975;SDS011;34791;52.752;8.346;2023-06-26T05:07:25;11.80;;;6.80;;
48975;SDS011;34791;52.752;8.346;2023-06-26T05:09:50;10.52;;;6.63;;
48975;SDS011;34791;52.752;8.346;2023-06-26T05:12:15;11.75;;;7.38;;
48975;SDS011;34791;52.752;8.346;2023-06-26T05:14:41;11.63;;;6.30;;
48975;SDS011;34791;52.752;8.346;2023-06-26T05:17:06;11.38;;;6.65;;
48975;SDS011;34791;52.752;8.346;2023-06-26T05:19:31;13.27;;;6.97;;
48975;SDS011;34791;52.752;8.346;2023-06-26T05:21:57;11.23;;;6.40;;
48975;SDS011;34791;52.752;8.346;2023-06-26T05:24:22;9.55;;;6.18;;
48975;SDS011;34791;52.752;8.346;2023-06-26T05:26:48;10.45;;;6.38;;
48975;SDS011;34791;52.752;8.346;2023-06-26T05:29:13;11.18;;;5.93;;
48975;SDS011;34791;52.752;8.346;2023-06-26T05:31:40;10.05;;;6.20;;
48975;SDS011;34791;52.752;8.346;2023-06-26T05:34:05;10.43;;;5.93;;
48975;SDS011;34791;52.752;8.346;2023-06-26T05:36:31;10.80;;;6.50;;
48975;SDS011;34791;52.752;8.346;2023-06-26T05:38:58;9.80;;;6.10;;
48975;SDS011;34791;52.752;8.346;2023-06-26T05:41:24;9.77;;;6.25;;
48975;SDS011;34791;52.752;8.346;2023-06-26T05:43:49;7.80;;;6.30;;
48975;SDS011;34791;52.752;8.346;2023-06-26T05:46:15;12.57;;;6.70;;
48975;SDS011;34791;52.752;8.346;2023-06-26T05:48:40;9.68;;;6.32;;
48975;SDS011;34791;52.752;8.346;2023-06-26T05:51:06;11.25;;;6.43;;
48975;SDS011;34791;52.752;8.346;2023-06-26T05:53:31;12.57;;;7.22;;
48975;SDS011;34791;52.752;8.346;2023-06-26T05:55:57;11.65;;;6.75;;
48975;SDS011;34791;52.752;8.346;2023-06-26T05:58:23;12.63;;;6.70;;
48975;SDS011;34791;52.752;8.346;2023-06-26T06:00:48;9.45;;;6.38;;
48975;SDS011;34791;52.752;8.346;2023-06-26T06:03:14;9.10;;;6.10;;
48975;SDS011;34791;52.752;8.346;2023-06-26T06:05:39;8.70;;;5.93;;
48975;SDS011;34791;52.752;8.346;2023-06-26T06:08:04;8.98;;;6.25;;
48975;SDS011;34791;52.752;8.346;2023-06-26T06:10:30;10.57;;;6.40;;
48975;SDS011;34791;52.752;8.346;2023-06-26T06:12:55;9.90;;;6.65;;
48975;SDS011;34791;52.752;8.346;2023-06-26T06:15:20;8.57;;;6.00;;
48975;SDS011;34791;52.752;8.346;2023-06-26T06:17:46;10.82;;;6.63;;
48975;SDS011;34791;52.752;8.346;2023-06-26T06:20:11;10.93;;;6.40;;
48975;SDS011;34791;52.752;8.346;2023-06-26T06:22:36;9.48;;;6.35;;
48975;SDS011;34791;52.752;8.346;2023-06-26T06:25:02;9.93;;;6.82;;
48975;SDS011;34791;52.752;8.346;2023-06-26T06:27:27;9.43;;;6.32;;
48975;SDS011;34791;52.752;8.346;2023-06-26T06:29:53;10.18;;;6.70;;
48975;SDS011;34791;52.752;8.346;2023-06-26T06:32:18;13.85;;;6.95;;
48975;SDS011;34791;52.752;8.346;2023-06-26T06:34:43;10.70;;;7.32;;
48975;SDS011;34791;52.752;8.346;2023-06-26T06:37:09;9.98;;;7.35;;
48975;SDS011;34791;52.752;8.346;2023-06-26T06:39:34;10.45;;;6.68;;
48975;SDS011;34791;52.752;8.346;2023-06-26T06:41:59;12.05;;;7.63;;
48975;SDS011;34791;52.752;8.346;2023-06-26T06:44:24;15.40;;;8.00;;
48975;SDS011;34791;52.752;8.346;2023-06-26T06:46:50;12.45;;;8.07;;
48975;SDS011;34791;52.752;8.346;2023-06-26T06:49:15;12.63;;;8.07;;
48975;SDS011;34791;52.752;8.346;2023-06-26T06:51:40;10.20;;;7.40;;
48975;SDS011;34791;52.752;8.346;2023-06-26T06:54:06;11.70;;;7.78;;
48975;SDS011;34791;52.752;8.346;2023-06-26T06:56:31;12.43;;;7.75;;
48975;SDS011;34791;52.752;8.346;2023-06-26T06:58:57;10.85;;;7.45;;
48975;SDS011;34791;52.752;8.346;2023-06-26T07:01:22;11.23;;;7.88;;
48975;SDS011;34791;52.752;8.346;2023-06-26T07:03:47;10.43;;;7.75;;
48975;SDS011;34791;52.752;8.346;2023-06-26T07:06:13;10.75;;;7.53;;
48975;SDS011;34791;52.752;8.346;2023-06-26T07:08:38;10.65;;;7.53;;
48975;SDS011;34791;52.752;8.346;2023-06-26T07:11:03;10.30;;;7.18;;
48975;SDS011;34791;52.752;8.346;2023-06-26T07:13:29;10.73;;;7.70;;
48975;SDS011;34791;52.752;8.346;2023-06-26T07:15:54;10.95;;;7.60;;
48975;SDS011;34791;52.752;8.346;2023-06-26T07:18:19;10.95;;;7.68;;
48975;SDS011;34791;52.752;8.346;2023-06-26T07:20:45;11.93;;;7.68;;
48975;SDS011;34791;52.752;8.346;2023-06-26T07:23:10;15.90;;;8.30;;
48975;SDS011;34791;52.752;8.346;2023-06-26T07:25:35;14.95;;;7.93;;
48975;SDS011;34791;52.752;8.346;2023-06-26T07:28:01;12.93;;;8.18;;
48975;SDS011;34791;52.752;8.346;2023-06-26T07:30:26;12.50;;;7.53;;
48975;SDS011;34791;52.752;8.346;2023-06-26T07:32:51;14.43;;;8.48;;
48975;SDS011;34791;52.752;8.346;2023-06-26T07:35:17;13.43;;;8.80;;
48975;SDS011;34791;52.752;8.346;2023-06-26T07:37:42;13.75;;;9.00;;
48975;SDS011;34791;52.752;8.346;2023-06-26T07:40:07;14.30;;;8.93;;
48975;SDS011;34791;52.752;8.346;2023-06-26T07:42:33;14.27;;;8.80;;
48975;SDS011;34791;52.752;8.346;2023-06-26T07:44:58;13.52;;;7.60;;
48975;SDS011;34791;52.752;8.346;2023-06-26T07:47:23;14.02;;;7.05;;
48975;SDS011;34791;52.752;8.346;2023-06-26T07:49:49;17.65;;;7.78;;
48975;SDS011;34791;52.752;8.346;2023-06-26T07:52:14;10.55;;;6.40;;
48975;SDS011;34791;52.752;8.346;2023-06-26T07:54:40;12.38;;;6.90;;
48975;SDS011;34791;52.752;8.346;2023-06-26T07:57:05;10.30;;;6.72;;
48975;SDS011;34791;52.752;8.346;2023-06-26T07:59:34;17.23;;;7.97;;
48975;SDS011;34791;52.752;8.346;2023-06-26T08:01:59;19.73;;;8.70;;
48975;SDS011;34791;52.752;8.346;2023-06-26T08:04:25;19.85;;;8.27;;
48975;SDS011;34791;52.752;8.346;2023-06-26T08:06:51;15.77;;;7.60;;
48975;SDS011;34791;52.752;8.346;2023-06-26T08:09:18;16.35;;;8.77;;
48975;SDS011;34791;52.752;8.346;2023-06-26T08:11:43;15.68;;;9.48;;
48975;SDS011;34791;52.752;8.346;2023-06-26T08:14:09;16.90;;;10.35;;
48975;SDS011;34791;52.752;8.346;2023-06-26T08:16:34;19.98;;;11.60;;
48975;SDS011;34791;52.752;8.346;2023-06-26T08:19:00;19.17;;;12.32;;
48975;SDS011;34791;52.752;8.346;2023-06-26T08:21:25;20.33;;;13.07;;
48975;SDS011;34791;52.752;8.346;2023-06-26T08:23:50;22.45;;;13.13;;
48975;SDS011;34791;52.752;8.346;2023-06-26T08:26:15;21.58;;;12.75;;
48975;SDS011;34791;52.752;8.346;2023-06-26T08:28:41;21.85;;;11.35;;
48975;SDS011;34791;52.752;8.346;2023-06-26T08:31:06;18.42;;;10.07;;
48975;SDS011;34791;52.752;8.346;2023-06-26T08:33:31;14.68;;;9.52;;
48975;SDS011;34791;52.752;8.346;2023-06-26T08:35:56;18.38;;;9.45;;
48975;SDS011;34791;52.752;8.346;2023-06-26T08:38:22;19.00;;;10.70;;
48975;SDS011;34791;52.752;8.346;2023-06-26T08:40:47;18.50;;;9.80;;
48975;SDS011;34791;52.752;8.346;2023-06-26T08:43:12;13.85;;;8.98;;
48975;SDS011;34791;52.752;8.346;2023-06-26T08:45:38;16.38;;;10.25;;
48975;SDS011;34791;52.752;8.346;2023-06-26T08:48:03;16.40;;;10.13;;
48975;SDS011;34791;52.752;8.346;2023-06-26T08:50:31;16.77;;;10.57;;
48975;SDS011;34791;52.752;8.346;2023-06-26T08:53:08;19.33;;;10.63;;
48975;SDS011;34791;52.752;8.346;2023-06-26T08:55:36;21.27;;;10.20;;
48975;SDS011;34791;52.752;8.346;2023-06-26T08:58:03;20.95;;;10.73;;
48975;SDS011;34791;52.752;8.346;2023-06-26T09:00:29;16.60;;;9.98;;
48975;SDS011;34791;52.752;8.346;2023-06-26T09:02:55;16.88;;;9.52;;
48975;SDS011;34791;52.752;8.346;2023-06-26T09:05:20;14.52;;;9.27;;
48975;SDS011;34791;52.752;8.346;2023-06-26T09:07:46;17.30;;;9.82;;
48975;SDS011;34791;52.752;8.346;2023-06-26T09:10:11;13.85;;;8.60;;
48975;SDS011;34791;52.752;8.346;2023-06-26T09:12:37;13.95;;;8.65;;
48975;SDS011;34791;52.752;8.346;2023-06-26T09:15:03;14.40;;;7.43;;
48975;SDS011;34791;52.752;8.346;2023-06-26T09:17:30;12.40;;;6.47;;
48975;SDS011;34791;52.752;8.346;2023-06-26T09:19:55;10.98;;;6.50;;
48975;SDS011;34791;52.752;8.346;2023-06-26T09:22:21;13.25;;;6.57;;
48975;SDS011;34791;52.752;8.346;2023-06-26T09:24:47;12.88;;;6.28;;
48975;SDS011;34791;52.752;8.346;2023-06-26T09:27:13;13.38;;;6.38;;
48975;SDS011;34791;52.752;8.346;2023-06-26T09:29:38;11.32;;;6.10;;
48975;SDS011;34791;52.752;8.346;2023-06-26T09:32:04;13.75;;;5.68;;
48975;SDS011;34791;52.752;8.346;2023-06-26T09:34:32;14.05;;;6.13;;
48975;SDS011;34791;52.752;8.346;2023-06-26T09:36:58;11.95;;;5.13;;
48975;SDS011;34791;52.752;8.346;2023-06-26T09:39:23;9.52;;;4.85;;
48975;SDS011;34791;52.752;8.346;2023-06-26T09:41:49;9.52;;;4.85;;
48975;SDS011;34791;52.752;8.346;2023-06-26T09:44:15;10.27;;;4.47;;
48975;SDS011;34791;52.752;8.346;2023-06-26T09:46:40;9.82;;;4.93;;
48975;SDS011;34791;52.752;8.346;2023-06-26T09:49:09;8.93;;;4.63;;
48975;SDS011;34791;52.752;8.346;2023-06-26T09:51:39;9.80;;;4.50;;
48975;SDS011;34791;52.752;8.346;2023-06-26T09:54:04;9.18;;;4.13;;
48975;SDS011;34791;52.752;8.346;2023-06-26T09:56:30;6.63;;;3.80;;
48975;SDS011;34791;52.752;8.346;2023-06-26T09:58:56;8.55;;;3.50;;
48975;SDS011;34791;52.752;8.346;2023-06-26T10:01:25;6.43;;;2.95;;
48975;SDS011;34791;52.752;8.346;2023-06-26T10:03:50;6.50;;;2.90;;
48975;SDS011;34791;52.752;8.346;2023-06-26T10:06:17;7.57;;;2.97;;
48975;SDS011;34791;52.752;8.346;2023-06-26T10:08:44;6.75;;;2.70;;
48975;SDS011;34791;52.752;8.346;2023-06-26T10:11:11;6.28;;;2.90;;
48975;SDS011;34791;52.752;8.346;2023-06-26T10:13:42;7.32;;;2.40;;
48975;SDS011;34791;52.752;8.346;2023-06-26T10:16:07;5.93;;;2.15;;
48975;SDS011;34791;52.752;8.346;2023-06-26T10:18:33;5.20;;;2.13;;
48975;SDS011;34791;52.752;8.346;2023-06-26T10:21:01;7.65;;;2.17;;
48975;SDS011;34791;52.752;8.346;2023-06-26T10:23:28;8.57;;;2.53;;
48975;SDS011;34791;52.752;8.346;2023-06-26T10:25:55;7.78;;;2.70;;
48975;SDS011;34791;52.752;8.346;2023-06-26T10:28:21;5.82;;;2.25;;
48975;SDS011;34791;52.752;8.346;2023-06-26T10:30:48;6.18;;;2.30;;
48975;SDS011;34791;52.752;8.346;2023-06-26T10:33:16;8.43;;;2.20;;
48975;SDS011;34791;52.752;8.346;2023-06-26T10:35:44;5.50;;;1.92;;
48975;SDS011;34791;52.752;8.346;2023-06-26T10:38:10;6.57;;;1.80;;
48975;SDS011;34791;52.752;8.346;2023-06-26T10:40:45;4.60;;;1.50;;
48975;SDS011;34791;52.752;8.346;2023-06-26T10:43:11;7.22;;;1.95;;
48975;SDS011;34791;52.752;8.346;2023-06-26T10:45:37;3.83;;;1.38;;
48975;SDS011;34791;52.752;8.346;2023-06-26T10:50:33;5.07;;;1.70;;
48975;SDS011;34791;52.752;8.346;2023-06-26T10:53:15;5.78;;;1.70;;
48975;SDS011;34791;52.752;8.346;2023-06-26T10:56:00;5.85;;;1.80;;
48975;SDS011;34791;52.752;8.346;2023-06-26T11:01:23;4.32;;;1.60;;
48975;SDS011;34791;52.752;8.346;2023-06-26T11:03:49;5.40;;;1.65;;
48975;SDS011;34791;52.752;8.346;2023-06-26T11:06:17;4.22;;;1.60;;
48975;SDS011;34791;52.752;8.346;2023-06-26T11:08:46;4.68;;;1.60;;
48975;SDS011;34791;52.752;8.346;2023-06-26T11:11:14;5.80;;;1.50;;
48975;SDS011;34791;52.752;8.346;2023-06-26T11:13:40;6.13;;;1.90;;
48975;SDS011;34791;52.752;8.346;2023-06-26T11:16:05;7.22;;;1.70;;
48975;SDS011;34791;52.752;8.346;2023-06-26T11:18:31;5.22;;;1.67;;
48975;SDS011;34791;52.752;8.346;2023-06-26T11:21:03;4.43;;;1.73;;
48975;SDS011;34791;52.752;8.346;2023-06-26T11:23:29;8.75;;;2.17;;
48975;SDS011;34791;52.752;8.346;2023-06-26T11:25:54;5.18;;;1.70;;
48975;SDS011;34791;52.752;8.346;2023-06-26T11:28:21;5.88;;;1.60;;
48975;SDS011;34791;52.752;8.346;2023-06-26T11:30:46;4.05;;;1.65;;
48975;SDS011;34791;52.752;8.346;2023-06-26T11:33:11;8.02;;;1.92;;
48975;SDS011;34791;52.752;8.346;2023-06-26T11:35:37;6.10;;;1.67;;
48975;SDS011;34791;52.752;8.346;2023-06-26T11:38:03;5.55;;;1.60;;
48975;SDS011;34791;52.752;8.346;2023-06-26T11:43:00;7.25;;;1.42;;
48975;SDS011;34791;52.752;8.346;2023-06-26T11:45:29;5.68;;;1.40;;
48975;SDS011;34791;52.752;8.346;2023-06-26T11:47:55;3.92;;;1.33;;
48975;SDS011;34791;52.752;8.346;2023-06-26T11:50:21;4.75;;;1.75;;
48975;SDS011;34791;52.752;8.346;2023-06-26T11:52:52;6.07;;;1.80;;
48975;SDS011;34791;52.752;8.346;2023-06-26T11:55:17;5.45;;;1.40;;
48975;SDS011;34791;52.752;8.346;2023-06-26T11:57:47;4.05;;;1.60;;
48975;SDS011;34791;52.752;8.346;2023-06-26T12:00:13;6.65;;;1.70;;
48975;SDS011;34791;52.752;8.346;2023-06-26T12:02:39;4.28;;;1.40;;
48975;SDS011;34791;52.752;8.346;2023-06-26T12:05:05;6.38;;;1.40;;
48975;SDS011;34791;52.752;8.346;2023-06-26T12:07:31;4.05;;;1.40;;
48975;SDS011;34791;52.752;8.346;2023-06-26T12:09:56;3.90;;;1.27;;
48975;SDS011;34791;52.752;8.346;2023-06-26T12:12:23;4.93;;;1.30;;
48975;SDS011;34791;52.752;8.346;2023-06-26T12:14:48;4.45;;;1.20;;
48975;SDS011;34791;52.752;8.346;2023-06-26T12:17:14;5.07;;;1.42;;
48975;SDS011;34791;52.752;8.346;2023-06-26T12:19:43;5.50;;;1.50;;
48975;SDS011;34791;52.752;8.346;2023-06-26T12:22:09;6.28;;;1.67;;
48975;SDS011;34791;52.752;8.346;2023-06-26T12:24:38;3.90;;;1.50;;
48975;SDS011;34791;52.752;8.346;2023-06-26T12:27:11;3.90;;;1.50;;
48975;SDS011;34791;52.752;8.346;2023-06-26T12:29:38;4.28;;;1.50;;
48975;SDS011;34791;52.752;8.346;2023-06-26T12:32:04;5.95;;;2.05;;
48975;SDS011;34791;52.752;8.346;2023-06-26T12:34:31;8.38;;;1.50;;
48975;SDS011;34791;52.752;8.346;2023-06-26T12:36:59;4.80;;;1.65;;
48975;SDS011;34791;52.752;8.346;2023-06-26T12:39:25;5.35;;;1.65;;
48975;SDS011;34791;52.752;8.346;2023-06-26T12:41:53;5.55;;;1.67;;
48975;SDS011;34791;52.752;8.346;2023-06-26T12:44:23;7.38;;;1.58;;
48975;SDS011;34791;52.752;8.346;2023-06-26T12:46:53;3.78;;;1.60;;
48975;SDS011;34791;52.752;8.346;2023-06-26T12:49:18;7.93;;;1.63;;
48975;SDS011;34791;52.752;8.346;2023-06-26T12:51:44;4.80;;;1.48;;
48975;SDS011;34791;52.752;8.346;2023-06-26T12:54:09;6.43;;;1.30;;
48975;SDS011;34791;52.752;8.346;2023-06-26T12:56:35;6.50;;;1.60;;
48975;SDS011;34791;52.752;8.346;2023-06-26T12:59:00;6.78;;;1.52;;
48975;SDS011;34791;52.752;8.346;2023-06-26T13:01:26;4.55;;;1.58;;
48975;SDS011;34791;52.752;8.346;2023-06-26T13:03:53;3.47;;;1.30;;
48975;SDS011;34791;52.752;8.346;2023-06-26T13:06:18;4.65;;;1.27;;
48975;SDS011;34791;52.752;8.346;2023-06-26T13:08:43;6.93;;;1.50;;
48975;SDS011;34791;52.752;8.346;2023-06-26T13:11:09;3.35;;;1.40;;
48975;SDS011;34791;52.752;8.346;2023-06-26T13:13:34;8.25;;;1.90;;
48975;SDS011;34791;52.752;8.346;2023-06-26T13:15:59;4.75;;;1.50;;
48975;SDS011;34791;52.752;8.346;2023-06-26T13:18:25;3.97;;;1.40;;
48975;SDS011;34791;52.752;8.346;2023-06-26T13:20:50;9.13;;;1.58;;
48975;SDS011;34791;52.752;8.346;2023-06-26T13:23:16;4.85;;;1.13;;
48975;SDS011;34791;52.752;8.346;2023-06-26T13:25:41;4.72;;;1.20;;
48975;SDS011;34791;52.752;8.346;2023-06-26T13:28:07;4.15;;;1.30;;
48975;SDS011;34791;52.752;8.346;2023-06-26T13:30:32;8.18;;;1.45;;
48975;SDS011;34791;52.752;8.346;2023-06-26T13:32:57;6.10;;;1.52;;
48975;SDS011;34791;52.752;8.346;2023-06-26T13:35:23;6.05;;;1.70;;
48975;SDS011;34791;52.752;8.346;2023-06-26T13:37:48;3.65;;;1.52;;
48975;SDS011;34791;52.752;8.346;2023-06-26T13:40:13;4.22;;;1.60;;
48975;SDS011;34791;52.752;8.346;2023-06-26T13:42:39;5.10;;;1.65;;
48975;SDS011;34791;52.752;8.346;2023-06-26T13:45:05;3.17;;;1.35;;
48975;SDS011;34791;52.752;8.346;2023-06-26T13:47:30;3.25;;;1.30;;
48975;SDS011;34791;52.752;8.346;2023-06-26T13:49:56;3.78;;;1.50;;
48975;SDS011;34791;52.752;8.346;2023-06-26T13:52:21;3.78;;;1.40;;
48975;SDS011;34791;52.752;8.346;2023-06-26T13:54:46;5.18;;;1.80;;
48975;SDS011;34791;52.752;8.346;2023-06-26T13:57:12;7.45;;;1.70;;
48975;SDS011;34791;52.752;8.346;2023-06-26T13:59:37;6.72;;;1.80;;
48975;SDS011;34791;52.752;8.346;2023-06-26T14:02:04;8.70;;;1.75;;
48975;SDS011;34791;52.752;8.346;2023-06-26T14:04:30;4.47;;;1.50;;
48975;SDS011;34791;52.752;8.346;2023-06-26T14:06:55;8.40;;;1.70;;
48975;SDS011;34791;52.752;8.346;2023-06-26T14:09:21;4.63;;;1.30;;
48975;SDS011;34791;52.752;8.346;2023-06-26T14:11:46;4.25;;;1.77;;
48975;SDS011;34791;52.752;8.346;2023-06-26T14:14:12;4.05;;;1.38;;
48975;SDS011;34791;52.752;8.346;2023-06-26T14:16:38;6.13;;;1.50;;
48975;SDS011;34791;52.752;8.346;2023-06-26T14:19:04;5.15;;;1.50;;
48975;SDS011;34791;52.752;8.346;2023-06-26T14:21:30;5.35;;;1.50;;
48975;SDS011;34791;52.752;8.346;2023-06-26T14:23:55;2.97;;;1.27;;
48975;SDS011;34791;52.752;8.346;2023-06-26T14:26:21;4.95;;;1.60;;
48975;SDS011;34791;52.752;8.346;2023-06-26T14:28:46;5.05;;;1.55;;
48975;SDS011;34791;52.752;8.346;2023-06-26T14:31:12;5.97;;;1.20;;
48975;SDS011;34791;52.752;8.346;2023-06-26T14:33:37;5.28;;;1.63;;
48975;SDS011;34791;52.752;8.346;2023-06-26T14:36:02;9.45;;;1.73;;
48975;SDS011;34791;52.752;8.346;2023-06-26T14:38:28;4.70;;;1.50;;
48975;SDS011;34791;52.752;8.346;2023-06-26T14:40:53;7.20;;;1.58;;
48975;SDS011;34791;52.752;8.346;2023-06-26T14:43:18;6.20;;;1.40;;
48975;SDS011;34791;52.752;8.346;2023-06-26T14:45:44;6.55;;;1.60;;
48975;SDS011;34791;52.752;8.346;2023-06-26T14:48:09;3.80;;;1.30;;